Time;durP1;ratioP1;P1;durP2;ratioP2;P2;SDS_P1;SDS_P2;PMS_P1;PMS_P2;Temp;Humidity;BMP_temperature;BMP_pressure;BME280_temperature;BME280_humidity;BME280_pressure;Samples;Min_cycle;Max_cycle;Signal;HPM_P1;HPM_P2
2023/06/01 00:00:10;;;;;;;8.75;7.10;;;;;;;18.33;52.59;102186.06;5066425;28;20033;-64
2023/06/01 00:02:36;;;;;;;9.32;7.15;;;;;;;18.37;52.52;102182.44;5067724;28;20056;-64
2023/06/01 00:05:01;;;;;;;10.90;7.65;;;;;;;18.39;52.63;102185.84;5056223;28;20120;-64
2023/06/01 00:07:29;;;;;;;9.90;6.93;;;;;;;18.40;52.45;102186.69;5050138;28;20507;-64
2023/06/01 00:09:55;;;;;;;8.75;7.18;;;;;;;18.34;52.58;102177.34;5053171;28;20029;-64
2023/06/01 00:12:20;;;;;;;8.50;6.95;;;;;;;18.31;52.90;102182.69;5069849;28;20071;-64
2023/06/01 00:14:46;;;;;;;11.02;7.95;;;;;;;18.34;52.83;102187.75;5070028;28;20078;-64
2023/06/01 00:17:11;;;;;;;11.93;7.45;;;;;;;18.32;52.75;102179.63;5058992;28;20025;-64
2023/06/01 00:19:38;;;;;;;10.98;7.70;;;;;;;18.28;52.74;102178.47;5061540;28;20045;-64
2023/06/01 00:22:04;;;;;;;10.55;7.20;;;;;;;18.14;52.85;102180.91;5068745;28;20068;-64
2023/06/01 00:24:29;;;;;;;10.95;7.93;;;;;;;18.28;52.35;102177.63;5070463;28;20057;-64
2023/06/01 00:26:54;;;;;;;10.68;8.40;;;;;;;18.22;52.54;102175.91;5069585;28;20099;-64
2023/06/01 00:29:20;;;;;;;12.93;8.38;;;;;;;18.14;52.34;102174.44;5070350;28;20037;-64
2023/06/01 00:31:46;;;;;;;10.73;8.50;;;;;;;18.05;52.49;102171.31;5071521;28;20051;-64
2023/06/01 00:34:12;;;;;;;12.65;8.85;;;;;;;17.98;52.51;102178.28;5061681;28;20101;-63
2023/06/01 00:36:37;;;;;;;14.68;8.70;;;;;;;17.86;52.70;102170.06;5054116;28;20033;-63
2023/06/01 00:39:03;;;;;;;13.18;8.88;;;;;;;17.86;52.83;102175.66;5055363;28;20129;-63
2023/06/01 00:41:30;;;;;;;13.38;8.95;;;;;;;17.66;53.22;102177.19;5071816;28;20029;-64
2023/06/01 00:43:55;;;;;;;12.45;9.05;;;;;;;17.66;53.04;102174.38;5069492;28;20112;-64
2023/06/01 00:46:21;;;;;;;15.07;8.73;;;;;;;17.71;53.07;102170.75;5060809;28;20157;-64
2023/06/01 00:48:46;;;;;;;15.32;9.02;;;;;;;17.63;53.15;102172.09;5057725;28;20356;-64
2023/06/01 00:51:14;;;;;;;12.68;9.05;;;;;;;17.65;53.08;102178.28;5074003;28;20103;-64
2023/06/01 00:53:40;;;;;;;16.65;9.85;;;;;;;17.63;53.01;102171.25;5065429;28;20396;-64
2023/06/01 00:56:06;;;;;;;15.15;9.73;;;;;;;17.59;53.11;102172.91;5062831;28;20021;-64
2023/06/01 00:58:32;;;;;;;16.50;9.75;;;;;;;17.47;53.25;102172.25;5065996;28;20093;-65
2023/06/01 01:00:57;;;;;;;13.55;9.20;;;;;;;17.40;53.37;102175.25;5057086;28;20036;-64
2023/06/01 01:03:25;;;;;;;17.02;9.95;;;;;;;17.29;53.57;102182.75;5072966;28;20043;-64
2023/06/01 01:06:13;;;;;;;13.63;9.52;;;;;;;17.23;53.94;102183.81;5075257;28;20036;-64
2023/06/01 01:08:48;;;;;;;18.45;9.70;;;;;;;17.26;53.84;102188.06;5073330;28;20039;-64
2023/06/01 01:11:21;;;;;;;13.75;10.15;;;;;;;17.28;53.62;102186.66;5068434;28;20118;-64
2023/06/01 01:13:55;;;;;;;15.43;9.90;;;;;;;17.23;53.72;102197.84;5067979;28;20369;-64
2023/06/01 01:16:29;;;;;;;14.23;9.85;;;;;;;17.13;53.94;102194.91;5055704;28;20029;-66
2023/06/01 01:19:24;;;;;;;13.23;10.13;;;;;;;17.25;53.71;102192.81;5058140;28;20538;-65
2023/06/01 01:22:15;;;;;;;15.45;10.35;;;;;;;17.14;53.70;102186.25;5053254;28;20029;-65
2023/06/01 01:25:18;;;;;;;14.43;10.20;;;;;;;17.22;53.54;102181.28;5053089;28;20032;-65
2023/06/01 01:28:02;;;;;;;13.25;10.57;;;;;;;17.14;53.78;102185.41;5053632;28;20140;-65
2023/06/01 01:30:28;;;;;;;15.07;10.23;;;;;;;17.12;53.66;102182.00;5058764;28;20923;-65
2023/06/01 01:32:55;;;;;;;14.98;10.48;;;;;;;17.07;53.69;102182.81;5073413;28;20052;-65
2023/06/01 01:35:24;;;;;;;15.85;11.23;;;;;;;16.96;54.03;102191.38;5069397;28;20356;-65
2023/06/01 01:37:51;;;;;;;15.70;10.90;;;;;;;17.00;53.72;102192.53;5066536;28;20032;-65
2023/06/01 01:40:16;;;;;;;14.02;10.98;;;;;;;16.94;53.79;102188.84;5072749;28;20051;-65
2023/06/01 01:42:42;;;;;;;14.88;11.35;;;;;;;16.78;54.16;102189.75;5064503;28;20473;-65
2023/06/01 01:45:07;;;;;;;14.65;11.05;;;;;;;16.81;54.22;102201.28;5051855;28;20039;-65
2023/06/01 01:47:47;;;;;;;15.18;11.10;;;;;;;16.73;54.08;102198.97;5062159;28;20425;-65
2023/06/01 01:50:15;;;;;;;16.10;11.88;;;;;;;16.60;54.66;102207.75;5070132;28;20063;-65
2023/06/01 01:52:42;;;;;;;12.50;11.20;;;;;;;16.59;54.62;102203.25;5061151;28;20029;-66
2023/06/01 01:55:09;;;;;;;17.52;12.60;;;;;;;16.62;54.53;102205.50;5061357;28;20029;-65
2023/06/01 01:57:35;;;;;;;19.67;12.73;;;;;;;16.55;54.67;102200.13;5052201;28;20813;-65
2023/06/01 02:00:03;;;;;;;19.70;13.27;;;;;;;16.56;54.51;102192.56;5051900;28;20476;-65
2023/06/01 02:02:29;;;;;;;16.95;12.90;;;;;;;16.49;54.75;102203.09;5062405;28;20571;-65
2023/06/01 02:04:55;;;;;;;16.90;12.98;;;;;;;16.51;54.58;102198.09;5069298;28;20111;-65
2023/06/01 02:07:20;;;;;;;17.40;12.93;;;;;;;16.55;54.40;102199.28;5057919;28;20071;-65
2023/06/01 02:09:46;;;;;;;21.17;13.52;;;;;;;16.49;54.39;102191.91;5064297;28;20009;-65
2023/06/01 02:12:11;;;;;;;17.90;13.18;;;;;;;16.45;54.28;102194.38;5072073;28;20208;-65
2023/06/01 02:14:36;;;;;;;18.88;13.10;;;;;;;16.42;54.28;102197.69;5071639;28;20082;-65
2023/06/01 02:17:02;;;;;;;19.23;13.63;;;;;;;16.42;54.08;102189.28;5072663;28;20040;-65
2023/06/01 02:19:28;;;;;;;18.35;13.50;;;;;;;16.34;54.21;102189.72;5071418;28;20033;-65
2023/06/01 02:21:53;;;;;;;18.58;13.13;;;;;;;16.35;54.02;102189.50;5066031;28;20029;-65
2023/06/01 02:24:19;;;;;;;18.48;12.85;;;;;;;16.34;53.94;102193.38;5061581;28;20029;-64
2023/06/01 02:26:48;;;;;;;16.98;12.23;;;;;;;16.23;54.09;102197.16;5060721;28;20025;-65
2023/06/01 02:29:14;;;;;;;18.52;12.73;;;;;;;16.21;54.05;102182.56;5072568;28;20436;-65
2023/06/01 02:31:40;;;;;;;18.30;12.25;;;;;;;16.30;54.00;102189.41;5071448;28;20029;-65
2023/06/01 02:34:05;;;;;;;14.77;11.57;;;;;;;16.18;54.03;102194.28;5070766;28;20180;-65
2023/06/01 02:36:32;;;;;;;19.20;12.15;;;;;;;16.15;54.29;102200.38;5068291;28;20110;-65
2023/06/01 02:38:57;;;;;;;15.88;12.13;;;;;;;16.08;54.46;102189.38;5072512;28;20032;-65
2023/06/01 02:41:23;;;;;;;13.98;11.60;;;;;;;16.03;54.48;102202.44;5071347;28;20024;-65
2023/06/01 02:43:50;;;;;;;14.68;11.70;;;;;;;15.89;54.67;102197.22;5063221;28;20037;-65
2023/06/01 02:46:16;;;;;;;14.30;11.70;;;;;;;15.85;54.67;102193.22;5056728;28;20079;-65
2023/06/01 02:48:41;;;;;;;13.93;11.13;;;;;;;15.78;55.08;102195.34;5050892;28;20480;-65
2023/06/01 02:51:06;;;;;;;15.00;11.38;;;;;;;15.84;54.72;102185.94;5065435;28;20129;-65
2023/06/01 02:53:32;;;;;;;17.27;11.63;;;;;;;15.86;54.55;102192.13;5061895;28;20028;-65
2023/06/01 02:55:57;;;;;;;16.23;11.05;;;;;;;15.79;54.96;102196.19;5050634;28;20556;-65
2023/06/01 02:58:22;;;;;;;14.55;10.77;;;;;;;15.71;54.96;102192.72;5054926;28;20162;-65
2023/06/01 03:00:47;;;;;;;17.35;10.95;;;;;;;15.74;55.00;102194.16;5070039;28;20067;-65
2023/06/01 03:03:13;;;;;;;18.65;11.68;;;;;;;15.71;55.03;102192.72;5069845;28;20417;-65
2023/06/01 03:05:38;;;;;;;14.27;11.07;;;;;;;15.71;55.18;102195.50;5068976;28;20061;-65
2023/06/01 03:08:06;;;;;;;15.57;10.98;;;;;;;15.70;55.15;102199.44;5071734;28;20066;-65
2023/06/01 03:10:31;;;;;;;12.70;10.30;;;;;;;15.66;55.13;102200.19;5070825;28;20036;-65
2023/06/01 03:12:57;;;;;;;14.50;10.55;;;;;;;15.66;55.17;102197.41;5070474;28;20060;-66
2023/06/01 03:15:22;;;;;;;13.90;9.60;;;;;;;15.56;55.39;102197.19;5065694;28;20025;-65
2023/06/01 03:17:47;;;;;;;15.77;9.88;;;;;;;15.52;55.43;102196.00;5059324;28;20040;-65
2023/06/01 03:20:15;;;;;;;13.55;9.52;;;;;;;15.51;55.71;102194.31;5071457;28;20134;-65
2023/06/01 03:22:42;;;;;;;13.80;9.98;;;;;;;15.55;55.75;102198.28;5053194;28;20418;-65
2023/06/01 03:25:08;;;;;;;12.52;9.30;;;;;;;15.54;55.61;102205.00;5051313;28;20037;-65
2023/06/01 03:27:33;;;;;;;14.63;9.63;;;;;;;15.55;55.47;102195.50;5050533;28;20809;-65
2023/06/01 03:29:58;;;;;;;10.98;9.07;;;;;;;15.52;55.26;102196.00;5054243;28;20064;-65
2023/06/01 03:32:24;;;;;;;15.05;9.73;;;;;;;15.48;55.81;102195.66;5068248;28;20040;-65
2023/06/01 03:34:49;;;;;;;14.63;9.38;;;;;;;15.58;55.63;102195.00;5067198;28;20043;-65
2023/06/01 03:37:14;;;;;;;13.75;9.63;;;;;;;15.52;55.99;102198.78;5087552;28;20476;-65
2023/06/01 03:39:39;;;;;;;13.32;8.82;;;;;;;15.39;56.04;102191.59;5091397;28;20052;-65
2023/06/01 03:42:06;;;;;;;12.07;8.95;;;;;;;15.42;55.64;102202.28;5078304;28;20108;-65
2023/06/01 03:44:32;;;;;;;13.23;9.48;;;;;;;15.30;55.94;102202.34;5086984;28;20047;-65
2023/06/01 03:46:57;;;;;;;14.60;8.70;;;;;;;15.37;55.58;102202.19;5070086;28;20484;-65
2023/06/01 03:49:23;;;;;;;12.52;8.45;;;;;;;15.34;55.47;102197.94;5070154;28;20043;-65
2023/06/01 03:51:48;;;;;;;13.45;9.35;;;;;;;15.32;55.96;102208.50;5063784;28;20395;-65
2023/06/01 03:54:13;;;;;;;10.40;8.25;;;;;;;15.25;55.82;102207.84;5070791;28;20464;-65
2023/06/01 03:56:39;;;;;;;14.68;9.05;;;;;;;15.28;55.85;102215.72;5076722;28;20827;-66
2023/06/01 03:59:06;;;;;;;11.38;8.32;;;;;;;15.30;55.80;102205.13;5059376;28;20500;-65
2023/06/01 04:01:32;;;;;;;14.15;9.00;;;;;;;15.29;55.63;102209.03;5072272;28;20028;-65
2023/06/01 04:03:58;;;;;;;12.13;8.60;;;;;;;15.28;55.59;102207.31;5088489;28;20061;-65
2023/06/01 04:06:23;;;;;;;10.75;8.35;;;;;;;15.26;55.68;102203.94;5073211;28;20460;-65
2023/06/01 04:08:55;;;;;;;11.02;8.05;;;;;;;15.29;55.85;102211.84;5058150;28;20380;-65
2023/06/01 04:11:22;;;;;;;13.63;7.55;;;;;;;15.29;55.49;102209.03;5055790;28;20044;-64
2023/06/01 04:13:48;;;;;;;13.73;8.07;;;;;;;15.19;55.84;102209.69;5049375;28;20268;-65
2023/06/01 04:16:13;;;;;;;15.27;7.80;;;;;;;15.29;55.51;102206.25;5056891;28;20120;-65
2023/06/01 04:18:39;;;;;;;13.65;8.65;;;;;;;15.35;55.69;102210.81;5050042;28;20021;-65
2023/06/01 04:21:05;;;;;;;10.70;8.00;;;;;;;15.22;56.16;102213.94;5049274;28;20025;-63
2023/06/01 04:23:30;;;;;;;13.63;8.05;;;;;;;15.30;55.63;102210.72;5050179;28;20025;-65
2023/06/01 04:25:59;;;;;;;10.23;7.80;;;;;;;15.21;55.58;102206.66;5056788;28;20031;-65
2023/06/01 04:28:24;;;;;;;10.00;7.35;;;;;;;15.20;55.38;102202.16;5061108;28;20062;-65
2023/06/01 04:30:51;;;;;;;11.68;7.90;;;;;;;15.25;54.97;102213.44;5066966;28;20016;-65
2023/06/01 04:33:17;;;;;;;13.30;8.38;;;;;;;15.18;55.32;102212.75;5048974;28;20120;-65
2023/06/01 04:35:43;;;;;;;10.82;8.15;;;;;;;15.23;55.04;102207.25;5073005;28;20119;-65
2023/06/01 04:38:08;;;;;;;12.90;8.25;;;;;;;15.15;55.09;102218.84;5076082;28;20397;-65
2023/06/01 04:40:34;;;;;;;12.27;7.60;;;;;;;15.14;55.13;102218.00;5061660;28;20087;-65
2023/06/01 04:43:02;;;;;;;12.68;8.77;;;;;;;15.09;55.30;102222.63;5068977;28;20032;-64
2023/06/01 04:45:30;;;;;;;11.32;8.45;;;;;;;15.09;55.07;102222.63;5056869;28;20411;-64
2023/06/01 04:47:57;;;;;;;10.07;8.15;;;;;;;15.05;55.20;102218.63;5068796;28;20555;-64
2023/06/01 04:50:23;;;;;;;14.27;8.68;;;;;;;14.98;55.38;102219.66;5066930;28;20512;-64
2023/06/01 04:52:49;;;;;;;13.80;8.90;;;;;;;15.03;55.38;102220.84;5069924;28;20036;-64
2023/06/01 04:55:16;;;;;;;13.55;8.93;;;;;;;15.09;55.33;102231.00;5064051;28;20024;-64
2023/06/01 04:57:45;;;;;;;12.43;9.77;;;;;;;15.07;55.47;102225.69;5054795;28;20116;-64
2023/06/01 05:00:13;;;;;;;13.60;9.13;;;;;;;15.01;55.39;102229.47;5058477;28;20021;-64
2023/06/01 05:02:46;;;;;;;12.73;9.60;;;;;;;15.05;55.30;102224.22;5061193;28;20028;-64
2023/06/01 05:05:12;;;;;;;14.02;9.52;;;;;;;15.03;55.19;102220.84;5070198;28;20036;-64
2023/06/01 05:07:38;;;;;;;14.27;9.90;;;;;;;14.98;55.42;102218.81;5069840;28;20115;-64
2023/06/01 05:10:06;;;;;;;15.88;10.07;;;;;;;14.93;55.43;102208.38;5068801;28;20057;-64
2023/06/01 05:12:32;;;;;;;17.95;10.20;;;;;;;14.87;55.70;102212.16;5069173;28;20499;-65
2023/06/01 05:14:57;;;;;;;15.00;9.77;;;;;;;14.97;55.35;102215.16;5065217;28;20044;-64
2023/06/01 05:17:23;;;;;;;14.05;10.35;;;;;;;14.89;55.90;102215.53;5064433;28;20392;-64
2023/06/01 05:19:48;;;;;;;16.92;9.98;;;;;;;14.97;55.61;102214.28;5056824;28;20039;-64
2023/06/01 05:22:13;;;;;;;13.73;9.48;;;;;;;15.03;55.66;102218.03;5052581;28;20017;-65
2023/06/01 05:24:39;;;;;;;16.00;10.40;;;;;;;15.05;55.65;102215.84;5064984;28;20024;-64
2023/06/01 05:27:05;;;;;;;16.60;10.80;;;;;;;14.98;55.38;102225.22;5072105;28;20086;-65
2023/06/01 05:29:30;;;;;;;12.90;10.00;;;;;;;15.00;55.54;102215.75;5072202;28;20028;-64
2023/06/01 05:31:56;;;;;;;13.10;10.27;;;;;;;14.95;55.50;102213.69;5060390;28;20036;-64
2023/06/01 05:34:22;;;;;;;14.05;9.90;;;;;;;14.96;55.60;102216.22;5053138;28;20017;-64
2023/06/01 05:36:48;;;;;;;13.93;9.95;;;;;;;14.89;55.44;102217.47;5059912;28;20036;-63
2023/06/01 05:39:14;;;;;;;17.65;10.95;;;;;;;14.97;55.63;102217.09;5072068;28;20361;-63
2023/06/01 05:41:40;;;;;;;15.95;10.35;;;;;;;14.90;55.87;102210.81;5059728;28;20036;-62
2023/06/01 05:44:06;;;;;;;15.93;10.40;;;;;;;14.92;55.63;102209.44;5052241;28;20025;-62
2023/06/01 05:46:31;;;;;;;16.25;10.35;;;;;;;14.97;55.55;102212.38;5053319;28;20033;-63
2023/06/01 05:48:56;;;;;;;13.65;9.82;;;;;;;15.03;55.33;102215.25;5057255;28;20032;-63
2023/06/01 05:51:22;;;;;;;13.98;10.63;;;;;;;14.99;55.51;102220.50;5064497;28;20036;-64
2023/06/01 05:53:47;;;;;;;14.35;10.10;;;;;;;15.07;54.82;102211.69;5052342;28;20094;-64
2023/06/01 05:56:12;;;;;;;15.10;10.85;;;;;;;15.07;55.10;102213.66;5055818;28;20029;-63
2023/06/01 05:58:38;;;;;;;15.45;11.02;;;;;;;15.13;55.21;102209.84;5066275;28;20434;-63
2023/06/01 06:01:03;;;;;;;15.15;10.80;;;;;;;15.23;55.57;102215.63;5070089;28;20056;-63
2023/06/01 06:03:29;;;;;;;16.90;10.60;;;;;;;15.31;54.96;102211.56;5062756;28;20029;-64
2023/06/01 06:05:54;;;;;;;12.95;10.50;;;;;;;15.46;55.00;102214.66;5051861;28;20055;-64
2023/06/01 06:08:19;;;;;;;15.70;10.25;;;;;;;15.51;54.76;102219.50;5063257;28;20046;-63
2023/06/01 06:10:45;;;;;;;18.85;10.15;;;;;;;15.62;54.66;102208.22;5067981;28;20035;-63
2023/06/01 06:13:11;;;;;;;15.43;10.35;;;;;;;15.66;54.35;102220.63;5069466;28;20048;-64
2023/06/01 06:15:36;;;;;;;14.60;9.50;;;;;;;15.78;54.29;102219.69;5060987;28;20024;-63
2023/06/01 06:18:01;;;;;;;15.32;10.05;;;;;;;15.88;53.94;102223.53;5059608;28;20118;-64
2023/06/01 06:20:26;;;;;;;15.32;10.02;;;;;;;15.84;53.97;102227.94;5058257;28;20039;-64
2023/06/01 06:22:52;;;;;;;15.73;10.00;;;;;;;15.84;53.85;102229.91;5066231;28;20033;-64
2023/06/01 06:25:18;;;;;;;15.30;10.00;;;;;;;15.83;53.51;102226.22;5057183;28;21626;-63
2023/06/01 06:27:43;;;;;;;12.85;10.18;;;;;;;15.83;53.76;102226.22;5051380;28;20043;-65
2023/06/01 06:30:09;;;;;;;14.30;9.95;;;;;;;15.73;53.81;102223.28;5071124;28;20024;-64
2023/06/01 06:32:34;;;;;;;14.10;10.48;;;;;;;15.73;53.41;102230.81;5078257;28;20522;-64
2023/06/01 06:35:00;;;;;;;16.52;10.07;;;;;;;15.64;53.18;102224.75;5071871;28;20024;-63
2023/06/01 06:37:25;;;;;;;15.13;10.38;;;;;;;15.53;53.57;102223.75;5071591;28;20460;-64
2023/06/01 06:39:51;;;;;;;12.80;9.98;;;;;;;15.50;53.86;102227.03;5062866;28;20519;-64
2023/06/01 06:42:16;;;;;;;16.42;9.82;;;;;;;15.50;54.01;102229.84;5067404;28;20104;-63
2023/06/01 06:44:41;;;;;;;17.65;10.20;;;;;;;15.51;53.73;102222.28;5062181;28;20784;-64
2023/06/01 06:47:07;;;;;;;14.52;10.55;;;;;;;15.53;53.90;102220.09;5071558;28;20036;-63
2023/06/01 06:49:32;;;;;;;16.25;9.88;;;;;;;15.47;54.17;102221.94;5064401;28;20035;-63
2023/06/01 06:51:57;;;;;;;15.57;10.70;;;;;;;15.55;53.63;102229.06;5076642;28;20113;-64
2023/06/01 06:54:23;;;;;;;16.98;11.15;;;;;;;15.53;53.81;102225.69;5069612;28;20104;-65
2023/06/01 06:56:48;;;;;;;15.93;10.60;;;;;;;15.55;53.77;102227.13;5069554;28;20087;-65
2023/06/01 06:59:16;;;;;;;14.32;10.52;;;;;;;15.60;53.44;102237.53;5070685;28;20043;-64
2023/06/01 07:01:42;;;;;;;16.48;10.52;;;;;;;15.66;53.74;102233.78;5059256;28;20040;-64
2023/06/01 07:04:08;;;;;;;15.23;10.38;;;;;;;15.82;53.63;102237.69;5069744;28;20490;-63
2023/06/01 07:06:33;;;;;;;17.98;11.27;;;;;;;15.86;53.70;102233.28;5070415;28;20039;-64
2023/06/01 07:08:59;;;;;;;15.05;10.43;;;;;;;16.07;53.16;102237.22;5074644;28;20028;-65
2023/06/01 07:11:26;;;;;;;17.00;11.00;;;;;;;16.09;53.43;102235.88;5069438;28;20024;-65
2023/06/01 07:13:52;;;;;;;16.00;10.02;;;;;;;16.18;53.38;102230.69;5070083;28;20029;-65
2023/06/01 07:16:17;;;;;;;16.30;10.10;;;;;;;16.38;53.02;102227.34;5070242;28;20387;-64
2023/06/01 07:18:42;;;;;;;13.65;9.27;;;;;;;16.43;52.39;102228.28;5062711;28;20139;-66
2023/06/01 07:21:08;;;;;;;16.13;10.25;;;;;;;16.53;52.57;102235.13;5067855;28;20021;-66
2023/06/01 07:23:33;;;;;;;13.35;9.57;;;;;;;16.64;52.10;102223.78;5061280;28;20036;-65
2023/06/01 07:25:58;;;;;;;15.73;9.65;;;;;;;16.72;51.88;102216.03;5064405;28;20038;-65
2023/06/01 07:28:26;;;;;;;16.83;10.43;;;;;;;16.65;52.06;102219.84;5072176;28;20113;-64
2023/06/01 07:30:53;;;;;;;17.15;10.30;;;;;;;16.61;52.20;102220.63;5068144;28;20025;-64
2023/06/01 07:33:18;;;;;;;13.02;9.88;;;;;;;16.57;52.31;102227.88;5068255;28;20119;-64
2023/06/01 07:35:43;;;;;;;15.35;9.90;;;;;;;16.65;52.15;102221.81;5068248;28;20039;-64
2023/06/01 07:38:09;;;;;;;16.38;10.35;;;;;;;16.64;52.17;102220.97;5068663;28;20136;-64
2023/06/01 07:40:35;;;;;;;14.57;10.00;;;;;;;16.66;51.90;102224.38;5056592;28;20071;-65
2023/06/01 07:43:00;;;;;;;15.20;9.02;;;;;;;16.75;51.33;102222.00;5058039;28;20522;-64
2023/06/01 07:45:26;;;;;;;13.68;9.75;;;;;;;16.81;51.36;102220.94;5070343;28;20079;-64
2023/06/01 07:47:51;;;;;;;19.67;10.32;;;;;;;16.93;51.10;102229.19;5068345;28;20020;-64
2023/06/01 07:50:17;;;;;;;16.42;10.15;;;;;;;16.94;50.68;102219.69;5063217;28;20035;-65
2023/06/01 07:52:42;;;;;;;14.77;10.10;;;;;;;17.02;50.51;102219.22;5075099;28;20043;-65
2023/06/01 07:55:10;;;;;;;16.27;10.43;;;;;;;17.05;50.22;102220.63;5078355;28;20047;-65
2023/06/01 07:57:36;;;;;;;15.38;9.55;;;;;;;17.16;50.47;102222.44;5067571;28;20040;-65
2023/06/01 08:00:03;;;;;;;14.40;10.15;;;;;;;17.19;50.65;102224.72;5068635;28;20040;-64
2023/06/01 08:02:29;;;;;;;12.85;9.98;;;;;;;17.23;50.59;102227.84;5070483;28;20107;-65
2023/06/01 08:04:56;;;;;;;14.07;10.23;;;;;;;17.29;50.67;102215.56;5068984;28;20131;-60
2023/06/01 08:07:22;;;;;;;14.90;10.32;;;;;;;17.37;50.81;102223.50;5069850;28;20476;-61
2023/06/01 08:09:47;;;;;;;14.75;10.35;;;;;;;17.40;50.27;102220.16;5067531;28;20031;-62
2023/06/01 08:12:14;;;;;;;17.63;11.32;;;;;;;17.43;50.93;102214.03;5056673;28;20122;-62
2023/06/01 08:14:41;;;;;;;14.88;9.82;;;;;;;17.46;49.80;102219.13;5076778;28;20032;-63
2023/06/01 08:17:06;;;;;;;13.98;9.82;;;;;;;17.46;50.26;102215.47;5084149;28;20040;-63
2023/06/01 08:19:33;;;;;;;14.65;10.40;;;;;;;17.56;49.30;102215.53;5089430;28;20028;-63
2023/06/01 08:21:58;;;;;;;21.17;10.88;;;;;;;17.65;49.71;102208.34;5089698;28;20024;-64
2023/06/01 08:24:24;;;;;;;14.35;10.25;;;;;;;17.69;49.38;102214.28;5090181;28;20024;-63
2023/06/01 08:26:50;;;;;;;20.92;10.25;;;;;;;17.77;49.36;102208.19;5081220;28;20028;-63
2023/06/01 08:29:16;;;;;;;14.95;10.25;;;;;;;17.85;48.89;102211.34;5062569;28;20051;-63
2023/06/01 08:31:41;;;;;;;17.00;10.27;;;;;;;17.89;49.26;102220.06;5067977;28;20028;-63
2023/06/01 08:34:06;;;;;;;14.65;9.80;;;;;;;17.97;48.84;102213.97;5068939;28;20068;-63
2023/06/01 08:36:32;;;;;;;15.93;10.15;;;;;;;18.04;48.51;102219.34;5056563;28;20052;-65
2023/06/01 08:38:58;;;;;;;16.02;10.52;;;;;;;18.04;48.48;102216.53;5066962;28;20029;-65
2023/06/01 08:41:33;;;;;;;17.80;10.52;;;;;;;18.08;49.17;102212.06;5068043;28;20050;-65
2023/06/01 08:44:02;;;;;;;17.85;10.60;;;;;;;18.15;49.08;102210.69;5068440;28;20484;-65
2023/06/01 08:46:29;;;;;;;20.95;11.20;;;;;;;18.16;48.88;102200.31;5069071;28;20101;-65
2023/06/01 08:48:56;;;;;;;14.15;10.82;;;;;;;18.19;48.68;102202.56;5069067;28;20028;-65
2023/06/01 08:51:25;;;;;;;17.73;11.00;;;;;;;18.22;48.36;102199.22;5067940;28;20035;-64
2023/06/01 08:53:53;;;;;;;17.98;11.43;;;;;;;18.25;48.38;102198.69;5064473;28;20055;-65
2023/06/01 08:56:21;;;;;;;16.10;10.95;;;;;;;18.30;48.30;102197.84;5072837;28;20031;-64
2023/06/01 08:58:47;;;;;;;15.65;11.32;;;;;;;18.31;47.80;102196.72;5069213;28;20503;-65
2023/06/01 09:01:21;;;;;;;18.10;11.43;;;;;;;18.32;48.14;102202.09;5067027;28;20032;-64
2023/06/01 09:03:51;;;;;;;14.10;10.73;;;;;;;18.43;47.86;102196.50;5070551;28;20475;-65
2023/06/01 09:06:17;;;;;;;13.88;10.88;;;;;;;18.47;47.60;102192.03;5073037;28;20061;-64
2023/06/01 09:08:44;;;;;;;17.50;11.63;;;;;;;18.57;47.56;102194.91;5071442;28;20678;-65
2023/06/01 09:11:09;;;;;;;21.48;11.80;;;;;;;18.58;47.35;102188.16;5072881;28;20032;-64
2023/06/01 09:13:38;;;;;;;18.70;11.98;;;;;;;18.59;46.65;102189.88;5072820;28;20056;-65
2023/06/01 09:16:04;;;;;;;17.17;12.10;;;;;;;18.65;47.03;102188.75;5071088;28;20369;-65
2023/06/01 09:18:29;;;;;;;14.70;10.45;;;;;;;18.67;47.23;102177.22;5069245;28;20021;-65
2023/06/01 09:21:09;;;;;;;15.90;11.77;;;;;;;18.75;47.63;102180.41;5071966;28;20653;-65
2023/06/01 09:23:34;;;;;;;16.27;11.82;;;;;;;18.81;46.93;102170.00;5072236;28;20055;-65
2023/06/01 09:26:13;;;;;;;18.45;11.82;;;;;;;18.88;47.48;102177.06;5072092;28;20472;-64
2023/06/01 09:28:58;;;;;;;17.20;12.45;;;;;;;18.98;47.89;102176.25;5071880;28;20038;-65
2023/06/01 09:31:40;;;;;;;15.90;12.10;;;;;;;19.02;48.11;102168.06;5069136;28;20031;-65
2023/06/01 09:34:06;;;;;;;;;;;;;;;19.18;47.93;102181.06;5077348;28;20058;-63
2023/06/01 09:36:33;;;;;;;16.10;11.88;;;;;;;19.04;46.86;102166.69;5067859;28;20001;-63
2023/06/01 09:39:04;;;;;;;11.13;7.05;;;;;;;19.26;49.74;102162.78;5069564;28;20209;-65
2023/06/01 09:41:49;;;;;;;18.80;10.65;;;;;;;19.32;47.75;102159.69;5080249;28;20029;-61
2023/06/01 09:44:31;;;;;;;15.55;10.50;;;;;;;19.35;47.37;102150.66;5071590;28;20436;-61
2023/06/01 09:46:59;;;;;;;16.95;10.50;;;;;;;19.45;46.95;102157.41;5089426;28;20131;-65
2023/06/01 09:49:30;;;;;;;21.75;11.82;;;;;;;19.47;46.31;102158.00;5079836;28;20043;-64
2023/06/01 09:52:16;;;;;;;16.67;9.48;;;;;;;19.60;47.54;102152.63;5064050;28;20032;-61
2023/06/01 09:54:43;;;;;;;13.15;7.72;;;;;;;19.73;48.79;102154.09;5060054;28;20082;-63
2023/06/01 09:57:10;;;;;;;15.07;10.15;;;;;;;19.77;48.05;102162.81;5055902;28;20754;-64
2023/06/01 09:59:43;;;;;;;13.43;9.30;;;;;;;19.85;46.92;102156.59;5068846;28;20024;-63
2023/06/01 10:02:20;;;;;;;16.63;10.65;;;;;;;19.74;45.78;102158.59;5072344;28;20124;-64
2023/06/01 10:04:49;;;;;;;15.68;9.73;;;;;;;19.80;44.76;102150.97;5067802;28;20068;-63
2023/06/01 10:07:16;;;;;;;17.65;11.85;;;;;;;19.83;46.63;102156.03;5064855;28;20079;-64
2023/06/01 10:09:43;;;;;;;20.83;11.77;;;;;;;19.80;45.12;102150.97;5056044;28;20477;-64
2023/06/01 10:12:09;;;;;;;14.88;9.77;;;;;;;19.90;45.92;102161.38;5068002;28;20083;-64
2023/06/01 10:14:37;;;;;;;17.00;11.82;;;;;;;19.92;45.80;102142.19;5068853;28;20098;-64
2023/06/01 10:17:03;;;;;;;18.50;11.90;;;;;;;19.93;45.21;102155.19;5069412;28;20029;-64
2023/06/01 10:19:30;;;;;;;16.63;11.85;;;;;;;19.98;45.44;102149.53;5078300;28;20032;-64
2023/06/01 10:21:57;;;;;;;18.75;12.48;;;;;;;19.94;44.48;102145.59;5068458;28;20387;-63
2023/06/01 10:24:23;;;;;;;19.05;11.05;;;;;;;19.93;44.59;102152.38;5064375;28;20059;-64
2023/06/01 10:27:05;;;;;;;18.10;11.20;;;;;;;19.99;44.65;102143.59;5051004;28;20036;-63
2023/06/01 10:29:31;;;;;;;19.63;12.32;;;;;;;20.00;44.32;102147.25;5071099;28;20069;-64
2023/06/01 10:31:57;;;;;;;18.38;12.68;;;;;;;20.03;45.06;102141.91;5068861;28;20083;-63
2023/06/01 10:34:42;;;;;;;12.77;9.18;;;;;;;20.19;45.61;102142.69;5068765;28;20070;-63
2023/06/01 10:37:08;;;;;;;15.88;9.77;;;;;;;20.30;45.09;102118.13;5068773;28;20035;-63
2023/06/01 10:39:34;;;;;;;19.20;11.63;;;;;;;20.31;44.79;102131.94;5068309;28;20484;-63
2023/06/01 10:42:14;;;;;;;13.60;11.75;;;;;;;20.35;45.05;102129.38;5065277;28;20103;-63
2023/06/01 10:44:40;;;;;;;13.45;10.70;;;;;;;20.39;43.98;102124.84;5056360;28;20036;-64
2023/06/01 10:47:11;;;;;;;14.95;11.20;;;;;;;20.42;44.22;102138.38;5066107;28;20044;-64
2023/06/01 10:49:51;;;;;;;20.15;12.88;;;;;;;20.35;43.81;102137.84;5068733;28;20031;-64
2023/06/01 10:52:51;;;;;;;15.85;10.65;;;;;;;20.48;44.32;102130.75;5083540;28;20081;-63
2023/06/01 10:55:16;;;;;;;18.65;12.73;;;;;;;20.42;43.04;102129.09;5079329;28;20053;-62
2023/06/01 10:58:24;;;;;;;20.10;12.60;;;;;;;20.40;44.25;102123.75;5069224;28;20040;-62
2023/06/01 11:00:49;;;;;;;18.10;13.13;;;;;;;20.31;43.59;102119.81;5054817;28;20041;-64
2023/06/01 11:03:15;;;;;;;16.65;11.05;;;;;;;20.40;44.65;102115.28;5086091;28;20054;-64
2023/06/01 11:05:50;;;;;;;17.85;11.75;;;;;;;20.49;43.23;102127.69;5086271;28;20028;-63
2023/06/01 11:08:28;;;;;;;18.20;12.05;;;;;;;20.54;43.11;102127.63;5054251;28;20032;-63
2023/06/01 11:11:00;;;;;;;16.95;12.05;;;;;;;20.53;42.88;102120.31;5073101;28;20056;-66
2023/06/01 11:13:31;;;;;;;16.90;12.00;;;;;;;20.53;42.99;102117.50;5068048;28;20500;-66